Campbell, Virginia
Current Conditions -  °F | °C
As of 3:53 PM on Friday 19 Dec 2014 (Local Time) from KCHO Reporting Station
Clear Clear  
Wind Chill: 39°   Ceiling: Unl
Heat Index: 42°   Visibility: 10mi
Dew Point: 23°   Wind: 5mph
Humidity: 47%   Direction: NA
Pressure: 30.13"   Gusts: NA
Location:  38.0053°N, 78.3345°W
Report Text: KCHO 192053Z VRB04KT 10SM CLR 06/M05 A3013 RMK AO2 SLP206 T00561050 53007
Loading
Personal Weather Stations






























Interactive Weather Map New forecast layout! Learn more

10-Day Weather Forecast

Advertisements
Track Severe Weather on mobile